Southwest Ranches, Florida
Current Conditions -  °F | °C
As of 12:53 PM on Sunday 25 Jan 2015 (Local Time) from KHWO Reporting Station
Clear Clear  
Wind Chill: 65°   Ceiling: Unl
Heat Index: 65°   Visibility: 10mi
Dew Point: 38°   Wind: 9mph
Humidity: 37%   Direction: 290°WNW
Pressure: 30.07"   Gusts: NA
Location:  26.0551°N, 80.3691°W
Report Text: KHWO 251753Z 29008KT 10SM CLR 18/03 A3007 RMK AO2 SLP183 T01830033 10183 20100 58019
Loading
Personal Weather Stations






























Interactive Weather Map New forecast layout! Learn more

10-Day Weather Forecast

Advertisements
Track Severe Weather on mobile